Time;durP1;ratioP1;P1;durP2;ratioP2;P2;SDS_P1;SDS_P2;PMS_P1;PMS_P2;Temp;Humidity;BMP_temperature;BMP_pressure;BME280_temperature;BME280_humidity;BME280_pressure;Samples;Min_cycle;Max_cycle;Signal;HPM_P1;HPM_P2
2022/01/13 00:01:16;;;;;;;45.95;28.10;;;-0.20;99.90;;;;;;6124386;23;19998;-82
2022/01/13 00:03:42;;;;;;;43.33;27.80;;;-0.30;99.90;;;;;;6124508;23;20085;-82
2022/01/13 00:06:08;;;;;;;46.30;28.50;;;-0.50;99.90;;;;;;6122822;23;20026;-82
2022/01/13 00:08:33;;;;;;;45.10;27.70;;;-0.40;99.90;;;;;;6124601;23;20002;-82
2022/01/13 00:10:59;;;;;;;47.40;28.77;;;-0.40;99.90;;;;;;6098567;23;20009;-82
2022/01/13 00:13:31;;;;;;;46.13;28.88;;;-0.50;99.90;;;;;;6124140;23;20067;-82
2022/01/13 00:18:49;;;;;;;49.55;29.38;;;-0.50;99.90;;;;;;6124183;23;20137;-82
2022/01/13 00:21:30;;;;;;;47.03;29.90;;;0.00;99.90;;;;;;6123681;23;20441;-82
2022/01/13 00:24:00;;;;;;;49.70;29.10;;;-0.50;99.90;;;;;;6098177;23;20434;-83
2022/01/13 00:26:27;;;;;;;50.95;29.00;;;-0.50;99.90;;;;;;6125160;23;20042;-82
2022/01/13 00:28:55;;;;;;;44.83;28.52;;;-0.50;99.90;;;;;;6124009;23;20077;-82
2022/01/13 00:31:28;;;;;;;47.42;29.60;;;-0.60;99.90;;;;;;6124178;23;20009;-82
2022/01/13 00:33:55;;;;;;;47.92;31.30;;;-0.70;99.90;;;;;;6124254;23;20140;-82
2022/01/13 00:36:23;;;;;;;51.00;30.67;;;-0.60;99.90;;;;;;6123940;23;20036;-82
2022/01/13 00:38:48;;;;;;;48.53;29.55;;;-0.60;99.90;;;;;;6124759;23;20005;-83
2022/01/13 00:41:14;;;;;;;51.65;31.55;;;-0.60;99.90;;;;;;6098370;23;20061;-82
2022/01/13 00:43:42;;;;;;;49.83;30.85;;;-0.60;99.90;;;;;;6123716;23;20028;-82
2022/01/13 00:46:09;;;;;;;46.75;29.10;;;-0.60;99.90;;;;;;6124773;23;20006;-82
2022/01/13 00:48:34;;;;;;;45.90;28.38;;;-0.70;99.90;;;;;;6123929;23;20419;-82
2022/01/13 00:51:00;;;;;;;48.53;29.40;;;-0.80;99.90;;;;;;6124253;23;20032;-83
2022/01/13 00:53:26;;;;;;;49.30;29.90;;;-0.80;99.90;;;;;;6124141;23;20111;-82
2022/01/13 00:55:58;;;;;;;49.70;30.50;;;-0.80;99.90;;;;;;6124237;23;20365;-82
2022/01/13 00:58:26;;;;;;;50.65;29.08;;;-0.70;99.90;;;;;;6123462;23;20006;-82
2022/01/13 01:00:52;;;;;;;48.75;29.90;;;-0.80;99.90;;;;;;6124237;23;20429;-82
2022/01/13 01:03:18;;;;;;;50.97;30.23;;;-0.80;99.90;;;;;;6123571;23;20028;-82
2022/01/13 01:05:44;;;;;;;50.50;29.70;;;-0.70;99.90;;;;;;6125133;23;20030;-82
2022/01/13 01:08:10;;;;;;;49.80;30.33;;;-0.70;99.90;;;;;;6123491;23;20010;-82
2022/01/13 01:10:36;;;;;;;50.45;28.98;;;0.00;99.90;;;;;;6124349;23;20364;-82
2022/01/13 01:13:10;;;;;;;49.72;30.00;;;-0.70;99.90;;;;;;6124166;23;20018;-82
2022/01/13 01:15:38;;;;;;;44.80;27.98;;;-0.60;99.90;;;;;;6099939;23;20002;-82
2022/01/13 01:18:13;;;;;;;49.67;30.45;;;-0.60;99.90;;;;;;6125415;23;20484;-82
2022/01/13 01:20:49;;;;;;;45.75;28.27;;;0.00;99.90;;;;;;6126492;23;20002;-82
2022/01/13 01:23:19;;;;;;;45.72;28.20;;;-0.60;99.90;;;;;;6126240;23;20020;-82
2022/01/13 01:26:01;;;;;;;46.50;28.60;;;-0.70;99.90;;;;;;6100139;23;20002;-82
2022/01/13 01:28:36;;;;;;;47.75;28.85;;;-0.70;99.90;;;;;;6125910;23;20002;-82
2022/01/13 01:31:02;;;;;;;48.65;29.55;;;-0.70;99.90;;;;;;6125671;23;20002;-82
2022/01/13 01:33:28;;;;;;;49.05;29.35;;;-0.60;99.90;;;;;;6125081;23;20482;-82
2022/01/13 01:35:55;;;;;;;49.00;30.45;;;-0.70;99.90;;;;;;6126497;23;20432;-82
2022/01/13 01:38:21;;;;;;;52.03;30.77;;;-0.80;99.90;;;;;;6126363;23;20006;-82
2022/01/13 01:40:47;;;;;;;48.70;29.73;;;-0.20;99.90;;;;;;6126020;23;20009;-82
2022/01/13 01:43:13;;;;;;;48.60;29.67;;;-0.70;99.90;;;;;;6124946;23;20429;-82
2022/01/13 01:45:44;;;;;;;53.08;29.77;;;-0.80;99.90;;;;;;6126420;23;20054;-82
2022/01/13 01:48:11;;;;;;;49.88;31.13;;;-0.80;99.90;;;;;;6125617;23;20022;-82
2022/01/13 01:50:38;;;;;;;48.33;29.40;;;-0.80;99.90;;;;;;6126225;23;20002;-82
2022/01/13 01:53:05;;;;;;;48.92;30.50;;;-0.80;99.90;;;;;;6126035;23;20014;-82
2022/01/13 01:55:31;;;;;;;49.88;30.42;;;-0.80;99.90;;;;;;6126650;23;20002;-82
2022/01/13 01:57:56;;;;;;;47.80;30.27;;;-0.80;99.90;;;;;;6125278;23;20122;-82
2022/01/13 02:00:27;;;;;;;46.00;29.02;;;-0.90;99.90;;;;;;6100049;23;20006;-82
2022/01/13 02:02:55;;;;;;;50.45;30.75;;;-0.70;99.90;;;;;;6125455;23;20002;-82
2022/01/13 02:05:21;;;;;;;53.40;33.80;;;-0.90;99.90;;;;;;6125501;23;20436;-82
2022/01/13 02:07:46;;;;;;;50.25;29.85;;;-1.00;99.90;;;;;;6125638;23;20323;-82
2022/01/13 02:10:12;;;;;;;45.90;28.55;;;-1.10;99.90;;;;;;6125609;23;20037;-82
2022/01/13 02:12:43;;;;;;;44.58;27.55;;;-1.20;99.90;;;;;;6125455;23;20370;-82
2022/01/13 02:17:39;;;;;;;49.58;28.25;;;-1.00;99.90;;;;;;6124407;23;20025;-82
2022/01/13 02:20:07;;;;;;;44.83;28.10;;;-1.00;99.90;;;;;;6125216;23;20133;-83
2022/01/13 02:22:33;;;;;;;47.72;28.10;;;-1.00;99.90;;;;;;6126343;23;20006;-82
2022/01/13 02:24:59;;;;;;;48.75;28.50;;;-1.00;99.90;;;;;;6126396;23;20370;-82
2022/01/13 02:27:25;;;;;;;48.05;28.75;;;-1.00;99.90;;;;;;6124727;23;20009;-82
2022/01/13 02:29:51;;;;;;;45.63;28.50;;;-1.00;99.90;;;;;;6125645;23;20002;-82
2022/01/13 02:32:18;;;;;;;49.30;29.42;;;-1.00;99.90;;;;;;6124820;23;20014;-82
2022/01/13 02:34:44;;;;;;;49.28;29.67;;;-0.90;99.90;;;;;;6125622;23;20010;-82
2022/01/13 02:37:09;;;;;;;50.10;29.35;;;-0.90;99.90;;;;;;6126055;23;20328;-82
2022/01/13 02:39:36;;;;;;;44.25;27.58;;;-0.90;99.90;;;;;;6125234;23;20336;-82
2022/01/13 02:42:11;;;;;;;48.47;28.27;;;-0.90;99.90;;;;;;6124659;23;20073;-82
2022/01/13 02:44:50;;;;;;;44.38;27.23;;;-0.90;99.90;;;;;;6099573;23;20315;-82
2022/01/13 02:50:05;;;;;;;44.90;26.60;;;-1.00;99.90;;;;;;6125928;23;20432;-82
2022/01/13 02:52:31;;;;;;;47.47;26.98;;;-1.00;99.90;;;;;;6125208;23;19998;-82
2022/01/13 02:54:57;;;;;;;46.70;27.40;;;-1.10;99.90;;;;;;6125247;23;20014;-82
2022/01/13 02:57:22;;;;;;;47.85;26.67;;;-1.20;99.90;;;;;;6124846;23;20070;-82
2022/01/13 02:59:48;;;;;;;49.45;27.58;;;-1.10;99.90;;;;;;6125131;23;20016;-82
2022/01/13 03:02:14;;;;;;;46.17;27.75;;;-1.10;99.90;;;;;;6125811;23;20344;-83
2022/01/13 03:04:48;;;;;;;43.00;26.90;;;-1.10;99.90;;;;;;6125296;23;20002;-82
2022/01/13 03:07:14;;;;;;;44.53;27.67;;;-1.10;99.90;;;;;;6125232;23;20081;-83
2022/01/13 03:09:41;;;;;;;50.67;28.92;;;-1.10;99.90;;;;;;6125350;23;20010;-82
2022/01/13 03:12:08;;;;;;;47.53;28.02;;;-1.10;99.90;;;;;;6124996;23;20002;-82
2022/01/13 03:14:33;;;;;;;44.45;27.90;;;-1.10;99.90;;;;;;6124304;23;20013;-82
2022/01/13 03:16:59;;;;;;;46.65;27.92;;;-1.20;99.90;;;;;;6124826;23;20028;-82
2022/01/13 03:19:25;;;;;;;49.05;28.00;;;-1.30;99.90;;;;;;6124969;23;20014;-82
2022/01/13 03:21:51;;;;;;;47.15;28.48;;;-1.30;99.90;;;;;;6125334;23;20007;-82
2022/01/13 03:24:16;;;;;;;45.10;28.58;;;-1.20;99.90;;;;;;6125503;23;20332;-82
2022/01/13 03:26:44;;;;;;;43.25;25.85;;;-1.50;99.90;;;;;;6124516;23;20484;-82
2022/01/13 03:31:35;;;;;;;51.38;28.58;;;-1.50;99.90;;;;;;6125195;23;20013;-82
2022/01/13 03:34:01;;;;;;;43.83;27.15;;;-1.50;99.90;;;;;;6124123;23;20045;-82
2022/01/13 03:36:27;;;;;;;47.75;28.85;;;-1.50;99.90;;;;;;6125187;23;20057;-82
2022/01/13 03:38:54;;;;;;;44.08;27.60;;;-1.50;99.90;;;;;;6124486;23;20006;-82
2022/01/13 03:41:21;;;;;;;47.67;27.50;;;-1.50;99.90;;;;;;6125307;23;20053;-83
2022/01/13 03:43:50;;;;;;;45.85;26.55;;;-1.70;99.90;;;;;;6124431;23;20081;-82
2022/01/13 03:46:15;;;;;;;48.88;28.13;;;-1.60;99.90;;;;;;6098362;23;20340;-82
2022/01/13 03:48:42;;;;;;;54.17;29.60;;;-1.40;99.90;;;;;;6124529;23;20025;-82
2022/01/13 03:51:08;;;;;;;48.22;28.45;;;-1.40;99.90;;;;;;6124837;23;20010;-82
2022/01/13 03:53:36;;;;;;;47.78;28.75;;;-1.80;99.90;;;;;;6125160;23;20020;-82
2022/01/13 03:56:27;;;;;;;48.28;27.83;;;-1.70;99.90;;;;;;6123908;23;20318;-82
2022/01/13 03:59:20;;;;;;;45.55;28.45;;;-1.50;99.90;;;;;;6124056;23;20012;-83
2022/01/13 04:02:02;;;;;;;49.33;30.05;;;-1.40;99.90;;;;;;6124577;23;20002;-82
2022/01/13 04:04:34;;;;;;;51.58;29.95;;;-1.40;99.90;;;;;;6124743;23;19998;-82
2022/01/13 04:07:07;;;;;;;49.38;28.63;;;-1.40;99.90;;;;;;6125063;23;20057;-83
2022/01/13 04:09:33;;;;;;;51.53;28.55;;;-1.40;99.90;;;;;;6123924;23;20005;-82
2022/01/13 04:12:03;;;;;;;46.78;27.85;;;-1.40;99.90;;;;;;6123784;23;20002;-82
2022/01/13 04:14:37;;;;;;;46.80;27.88;;;-1.30;99.90;;;;;;6124465;23;20029;-82
2022/01/13 04:17:03;;;;;;;43.00;27.00;;;-1.30;99.90;;;;;;6124385;23;19998;-83
2022/01/13 04:19:29;;;;;;;49.92;28.50;;;-1.30;99.90;;;;;;6124430;23;20034;-82
2022/01/13 04:21:55;;;;;;;46.83;27.63;;;-1.40;99.90;;;;;;6124262;23;20002;-82
2022/01/13 04:24:20;;;;;;;46.88;27.83;;;-1.50;99.90;;;;;;6123944;23;20153;-83
2022/01/13 04:26:46;;;;;;;51.67;28.35;;;-1.40;99.90;;;;;;6124056;23;20006;-82
2022/01/13 04:31:44;;;;;;;49.25;28.35;;;-1.50;99.90;;;;;;6125083;23;20010;-82
2022/01/13 04:34:11;;;;;;;47.30;27.38;;;-1.40;99.90;;;;;;6124819;23;20018;-82
2022/01/13 04:36:37;;;;;;;48.40;28.00;;;-1.40;99.90;;;;;;6124635;23;19998;-82
2022/01/13 04:39:04;;;;;;;45.10;27.02;;;-1.40;99.90;;;;;;6123571;23;20002;-82
2022/01/13 04:41:34;;;;;;;46.60;28.55;;;-1.40;99.90;;;;;;6123644;23;20433;-82
2022/01/13 04:44:00;;;;;;;43.75;27.42;;;-1.40;99.90;;;;;;6124867;23;20006;-82
2022/01/13 04:46:26;;;;;;;46.70;26.67;;;-1.30;99.90;;;;;;6124325;23;20005;-82
2022/01/13 04:48:53;;;;;;;48.63;28.67;;;-1.40;99.90;;;;;;6123483;23;20022;-82
2022/01/13 04:51:19;;;;;;;51.10;28.77;;;-1.40;99.90;;;;;;6124118;23;20033;-82
2022/01/13 04:53:45;;;;;;;43.65;26.55;;;-1.40;99.90;;;;;;6123852;23;20049;-82
2022/01/13 04:56:14;;;;;;;45.13;27.05;;;-1.40;99.90;;;;;;6123678;23;19998;-82
2022/01/13 04:58:40;;;;;;;42.40;25.60;;;-1.30;99.90;;;;;;6124335;23;20069;-82
2022/01/13 05:01:07;;;;;;;46.53;25.27;;;-1.40;99.90;;;;;;6124661;23;20384;-82
2022/01/13 05:03:33;;;;;;;44.50;25.25;;;-1.40;99.90;;;;;;6124473;23;20026;-83
2022/01/13 05:05:58;;;;;;;44.67;25.83;;;-1.40;99.90;;;;;;6124259;23;20005;-82
2022/01/13 05:08:24;;;;;;;43.60;26.20;;;-1.40;99.90;;;;;;6124349;23;20002;-82
2022/01/13 05:10:50;;;;;;;44.15;25.67;;;-1.50;99.90;;;;;;6122849;23;19998;-83
2022/01/13 05:13:15;;;;;;;47.47;26.23;;;-1.50;99.90;;;;;;6124110;23;20024;-82
2022/01/13 05:15:43;;;;;;;42.72;25.90;;;-1.50;99.90;;;;;;6124121;23;20030;-82
2022/01/13 05:20:57;;;;;;;45.83;25.65;;;-1.50;99.90;;;;;;6124393;23;20002;-82
2022/01/13 05:23:23;;;;;;;47.13;27.27;;;-1.40;99.90;;;;;;6124277;23;20010;-82
2022/01/13 05:25:49;;;;;;;43.40;26.05;;;-1.20;99.90;;;;;;6124159;23;20028;-82
2022/01/13 05:28:15;;;;;;;44.30;26.42;;;-1.30;99.90;;;;;;6124073;23;20441;-82
2022/01/13 05:30:41;;;;;;;47.97;27.50;;;-1.30;99.90;;;;;;6124180;23;20006;-82
2022/01/13 05:33:08;;;;;;;51.53;29.13;;;-1.20;99.90;;;;;;6124203;23;20272;-82
2022/01/13 05:35:36;;;;;;;51.63;29.33;;;-1.00;99.90;;;;;;6125021;23;20010;-82
2022/01/13 05:38:05;;;;;;;49.22;28.95;;;-0.90;99.90;;;;;;6123517;23;20002;-83
2022/01/13 05:40:32;;;;;;;46.28;28.15;;;-0.90;99.90;;;;;;6123405;23;20078;-82
2022/01/13 05:42:57;;;;;;;48.88;28.00;;;-0.90;99.90;;;;;;6123914;23;20002;-82
2022/01/13 05:45:28;;;;;;;46.63;27.13;;;-0.90;99.90;;;;;;6123861;23;20473;-82
2022/01/13 05:47:56;;;;;;;45.67;27.55;;;-0.90;99.90;;;;;;6124576;23;20345;-82
2022/01/13 05:50:22;;;;;;;47.17;27.10;;;-0.80;99.90;;;;;;6124152;23;20021;-82
2022/01/13 05:52:48;;;;;;;46.92;26.75;;;-0.90;99.90;;;;;;6123560;23;20453;-83
2022/01/13 05:55:15;;;;;;;43.53;25.77;;;-1.10;99.90;;;;;;6122629;23;20061;-82
2022/01/13 05:57:41;;;;;;;44.80;26.08;;;-1.00;99.90;;;;;;6123969;23;20480;-82
2022/01/13 06:00:09;;;;;;;47.72;27.63;;;-1.10;99.90;;;;;;6125096;23;20069;-82
2022/01/13 06:02:36;;;;;;;45.63;26.63;;;-1.00;99.90;;;;;;6125512;23;20001;-82
2022/01/13 06:05:02;;;;;;;44.85;27.85;;;-0.90;99.90;;;;;;6125802;23;20361;-82
2022/01/13 06:07:28;;;;;;;43.85;26.77;;;-0.90;99.90;;;;;;6125233;23;20013;-82
2022/01/13 06:09:53;;;;;;;45.97;27.10;;;-0.90;99.90;;;;;;6124476;23;20002;-82
2022/01/13 06:12:21;;;;;;;44.15;26.48;;;-0.90;99.90;;;;;;6125049;23;20006;-82
2022/01/13 06:14:47;;;;;;;43.53;25.52;;;-1.00;99.90;;;;;;6125353;23;20061;-82
2022/01/13 06:17:13;;;;;;;47.13;26.83;;;-0.90;99.90;;;;;;6125283;23;20006;-82
2022/01/13 06:19:38;;;;;;;47.75;27.67;;;-1.00;99.90;;;;;;6126351;23;20073;-82
2022/01/13 06:22:04;;;;;;;47.40;29.10;;;-1.10;99.90;;;;;;6125577;23;20511;-84
2022/01/13 06:24:29;;;;;;;45.65;27.40;;;-1.20;99.90;;;;;;6124709;23;20008;-83
2022/01/13 06:26:55;;;;;;;50.33;29.52;;;-1.10;99.90;;;;;;6125296;23;20343;-83
2022/01/13 06:29:21;;;;;;;47.95;28.33;;;-1.10;99.90;;;;;;6126418;23;20057;-82
2022/01/13 06:31:46;;;;;;;48.05;27.90;;;-1.00;99.90;;;;;;6125401;23;20349;-82
2022/01/13 06:34:12;;;;;;;43.25;26.95;;;-0.90;99.90;;;;;;6126006;23;20021;-83
2022/01/13 06:36:37;;;;;;;46.40;26.30;;;-1.00;99.90;;;;;;6125537;23;20009;-83
2022/01/13 06:39:03;;;;;;;47.65;27.27;;;-0.90;99.90;;;;;;6124154;23;20452;-82
2022/01/13 06:41:29;;;;;;;46.08;27.42;;;-0.80;99.90;;;;;;6124488;23;20009;-81
2022/01/13 06:43:54;;;;;;;51.90;28.52;;;-0.80;99.90;;;;;;6125908;23;19998;-84
2022/01/13 06:46:20;;;;;;;48.78;28.58;;;-0.80;99.90;;;;;;6125631;23;20006;-83
2022/01/13 06:48:46;;;;;;;48.03;28.35;;;-0.80;99.90;;;;;;6124506;23;20090;-84
2022/01/13 06:51:12;;;;;;;45.35;27.40;;;-0.80;99.90;;;;;;6126234;23;20013;-84
2022/01/13 06:53:38;;;;;;;47.33;28.40;;;-0.80;99.90;;;;;;6124158;23;20014;-83
2022/01/13 06:56:05;;;;;;;48.67;30.33;;;-0.70;99.90;;;;;;6125087;23;20006;-83
2022/01/13 06:58:30;;;;;;;52.80;31.60;;;-0.60;99.90;;;;;;6125036;23;20006;-84
2022/01/13 07:00:56;;;;;;;55.47;32.22;;;-0.70;99.90;;;;;;6124944;23;20002;-83
2022/01/13 07:03:22;;;;;;;53.53;32.53;;;-0.70;99.90;;;;;;6125517;23;20504;-83
2022/01/13 07:05:48;;;;;;;49.53;31.48;;;-0.60;99.90;;;;;;6098726;23;20009;-84
2022/01/13 07:08:14;;;;;;;54.72;32.63;;;-0.50;99.90;;;;;;6124648;23;20010;-84
2022/01/13 07:10:40;;;;;;;52.85;31.50;;;-0.50;99.90;;;;;;6124976;23;20736;-84
2022/01/13 07:13:06;;;;;;;52.63;31.23;;;-0.40;99.90;;;;;;6125165;23;20009;-84
2022/01/13 07:15:32;;;;;;;53.55;32.33;;;-0.40;99.90;;;;;;6125151;23;20002;-84
2022/01/13 07:17:59;;;;;;;53.85;33.33;;;-0.40;99.90;;;;;;6124179;23;20041;-84
2022/01/13 07:20:25;;;;;;;55.00;33.17;;;-0.40;99.90;;;;;;6125897;23;20055;-85
2022/01/13 07:22:51;;;;;;;56.55;34.45;;;-0.30;99.90;;;;;;6099155;23;20310;-84
2022/01/13 07:25:17;;;;;;;55.33;34.45;;;-0.20;99.90;;;;;;6123943;23;20005;-84
2022/01/13 07:27:43;;;;;;;54.33;34.15;;;-0.10;99.90;;;;;;6125315;23;20021;-85
2022/01/13 07:30:10;;;;;;;54.15;33.63;;;0.00;99.90;;;;;;6124794;23;20447;-85
2022/01/13 07:32:36;;;;;;;55.50;35.28;;;0.00;99.90;;;;;;6124568;23;20041;-85
2022/01/13 07:35:02;;;;;;;53.90;33.83;;;0.10;99.90;;;;;;6124745;23;20071;-85
2022/01/13 07:37:28;;;;;;;52.15;32.22;;;0.20;99.90;;;;;;6124278;23;19998;-85
2022/01/13 07:39:53;;;;;;;60.33;36.65;;;0.40;99.90;;;;;;6125237;23;20024;-83
2022/01/13 07:42:19;;;;;;;63.97;39.15;;;0.80;99.90;;;;;;6124912;23;20318;-85
2022/01/13 07:44:45;;;;;;;96.10;49.63;;;0.30;99.90;;;;;;6125101;23;20005;-85
2022/01/13 07:47:10;;;;;;;86.65;47.55;;;0.70;99.90;;;;;;6124606;23;20022;-85
2022/01/13 07:49:36;;;;;;;75.70;45.50;;;0.80;99.90;;;;;;6124771;23;20089;-85
2022/01/13 07:52:03;;;;;;;68.75;40.95;;;0.80;99.90;;;;;;6124650;23;20006;-84
2022/01/13 07:54:30;;;;;;;70.78;40.28;;;0.80;99.90;;;;;;6124320;23;20018;-85
2022/01/13 07:56:57;;;;;;;52.40;32.30;;;0.60;99.90;;;;;;6124532;23;20018;-83
2022/01/13 07:59:27;;;;;;;57.38;35.60;;;0.60;99.90;;;;;;6124837;23;20018;-83
2022/01/13 08:01:54;;;;;;;65.38;38.83;;;0.70;99.90;;;;;;6123813;23;20082;-85
2022/01/13 08:04:19;;;;;;;63.13;38.03;;;0.70;99.90;;;;;;6124580;23;20064;-85
2022/01/13 08:06:45;;;;;;;53.38;32.13;;;0.80;99.90;;;;;;6124411;23;20395;-85
2022/01/13 08:09:11;;;;;;;64.07;36.05;;;0.70;99.90;;;;;;6123965;23;20006;-86
2022/01/13 08:11:36;;;;;;;60.50;35.08;;;0.80;99.90;;;;;;6124974;23;20009;-86
2022/01/13 08:14:02;;;;;;;53.53;33.63;;;1.00;99.90;;;;;;6124379;23;20009;-85
2022/01/13 08:16:33;;;;;;;91.97;46.13;;;1.00;99.90;;;;;;6124441;23;20008;-85
2022/01/13 08:21:43;;;;;;;76.90;42.30;;;1.00;99.90;;;;;;6124241;23;20416;-84
2022/01/13 08:24:08;;;;;;;70.35;42.20;;;1.00;99.90;;;;;;6124348;23;19998;-84
2022/01/13 08:26:34;;;;;;;46.72;29.15;;;1.00;99.90;;;;;;6124725;23;20081;-86
2022/01/13 08:29:00;;;;;;;45.63;29.02;;;0.90;99.90;;;;;;6124506;23;20001;-87
2022/01/13 08:31:25;;;;;;;44.95;28.35;;;0.90;99.90;;;;;;6124426;23;20013;-84
2022/01/13 08:33:51;;;;;;;48.05;29.98;;;0.90;99.90;;;;;;6123160;23;20436;-87
2022/01/13 08:36:16;;;;;;;45.25;28.90;;;0.90;99.90;;;;;;6124846;23;20410;-87
2022/01/13 08:38:42;;;;;;;42.20;28.00;;;1.00;99.90;;;;;;6123214;23;20010;-88
2022/01/13 08:41:08;;;;;;;44.03;28.42;;;1.00;99.90;;;;;;6126143;23;20432;-87
2022/01/13 08:43:34;;;;;;;45.75;28.80;;;1.00;99.90;;;;;;6125097;23;20017;-88
2022/01/13 08:46:03;;;;;;;46.83;30.10;;;1.60;99.90;;;;;;6124570;23;20010;-88
2022/01/13 08:48:29;;;;;;;42.88;27.98;;;1.10;99.90;;;;;;6123816;23;20029;-90
2022/01/13 08:50:56;;;;;;;42.28;27.52;;;1.10;99.90;;;;;;6124958;23;20425;-88
2022/01/13 08:53:21;;;;;;;44.72;29.45;;;1.10;99.90;;;;;;6120913;23;20469;-85
2022/01/13 08:55:48;;;;;;;41.03;26.67;;;1.20;99.90;;;;;;6124116;23;20029;-85
2022/01/13 08:58:14;;;;;;;42.45;28.80;;;1.30;99.90;;;;;;6124227;23;20026;-89
2022/01/13 09:00:41;;;;;;;42.17;27.50;;;1.80;99.90;;;;;;6096873;23;20009;-87
2022/01/13 09:03:07;;;;;;;40.85;27.25;;;1.50;99.90;;;;;;6122567;23;20005;-87
2022/01/13 09:05:34;;;;;;;45.90;29.25;;;1.40;99.90;;;;;;6123241;23;20010;-87
2022/01/13 09:08:02;;;;;;;41.42;27.63;;;1.40;99.90;;;;;;6123200;23;20006;-88
2022/01/13 09:10:28;;;;;;;40.38;26.17;;;2.00;99.90;;;;;;6123779;23;20448;-87
2022/01/13 09:12:53;;;;;;;41.70;27.38;;;1.50;99.90;;;;;;6123231;23;20029;-89
2022/01/13 09:15:31;;;;;;;40.65;27.52;;;1.50;99.90;;;;;;6123730;23;20006;-89
2022/01/13 09:17:58;;;;;;;41.78;25.98;;;2.10;99.90;;;;;;6097278;23;20018;-87
2022/01/13 09:20:25;;;;;;;42.58;27.52;;;1.50;99.90;;;;;;6097863;23;20007;-87
2022/01/13 09:22:51;;;;;;;42.35;27.67;;;1.40;99.90;;;;;;6122961;23;20028;-87
2022/01/13 09:25:17;;;;;;;43.88;27.77;;;1.50;99.90;;;;;;6124215;23;20002;-87
2022/01/13 09:27:43;;;;;;;44.05;27.90;;;1.40;99.90;;;;;;6124975;23;20025;-87
2022/01/13 09:30:13;;;;;;;44.03;28.20;;;1.40;99.90;;;;;;6123850;23;20005;-88
2022/01/13 09:32:40;;;;;;;42.88;28.35;;;1.50;99.90;;;;;;6123383;23;20037;-88
2022/01/13 09:35:07;;;;;;;45.70;28.15;;;1.50;99.90;;;;;;6125824;23;20086;-88
2022/01/13 09:37:34;;;;;;;44.35;28.77;;;1.50;99.90;;;;;;6127042;23;20058;-88
2022/01/13 09:40:00;;;;;;;42.15;27.25;;;1.50;99.90;;;;;;6126282;23;20358;-88
2022/01/13 09:42:29;;;;;;;46.72;28.92;;;1.90;99.90;;;;;;6126294;23;20013;-88
2022/01/13 09:44:57;;;;;;;41.00;27.23;;;1.40;99.90;;;;;;6100157;23;20096;-88
2022/01/13 09:47:24;;;;;;;43.38;28.98;;;1.60;99.90;;;;;;6124881;23;20018;-88
2022/01/13 09:49:50;;;;;;;44.15;28.52;;;1.60;99.90;;;;;;6126221;23;20029;-88
2022/01/13 09:52:16;;;;;;;43.90;28.45;;;1.60;99.90;;;;;;6125231;23;19998;-88
2022/01/13 09:54:42;;;;;;;44.03;28.63;;;2.30;99.90;;;;;;6125277;23;20040;-88
2022/01/13 09:57:08;;;;;;;41.95;27.50;;;1.90;99.90;;;;;;6125890;23;20238;-89
2022/01/13 09:59:34;;;;;;;44.75;29.00;;;2.70;99.90;;;;;;6125930;23;20066;-88
2022/01/13 10:02:00;;;;;;;42.63;28.50;;;2.00;99.90;;;;;;6099924;23;20010;-89
2022/01/13 10:04:44;;;;;;;39.20;26.80;;;2.20;99.90;;;;;;6125997;23;20005;-88
2022/01/13 10:07:12;;;;;;;42.17;26.95;;;2.20;99.90;;;;;;6124965;23;20006;-89
2022/01/13 10:09:59;;;;;;;39.63;26.63;;;2.70;99.90;;;;;;6126200;23;20010;-88
2022/01/13 10:12:35;;;;;;;40.03;27.17;;;2.90;99.90;;;;;;6125830;23;20009;-89
2022/01/13 10:17:43;;;;;;;44.22;28.85;;;2.10;99.90;;;;;;6125908;23;20385;-88
2022/01/13 10:20:12;;;;;;;41.47;28.00;;;2.20;99.90;;;;;;6125483;23;20006;-89
2022/01/13 10:22:38;;;;;;;41.47;27.42;;;2.60;99.90;;;;;;6099174;23;20006;-87
2022/01/13 10:25:04;;;;;;;44.05;28.42;;;2.80;99.90;;;;;;6125516;23;20382;-88
2022/01/13 10:27:35;;;;;;;43.20;27.55;;;2.20;99.90;;;;;;6100367;23;20037;-88
2022/01/13 10:30:06;;;;;;;41.15;26.83;;;2.70;99.90;;;;;;6098767;23;20006;-88
2022/01/13 10:32:40;;;;;;;39.42;26.58;;;2.30;99.90;;;;;;6099268;23;20373;-88
2022/01/13 10:35:15;;;;;;;40.60;26.35;;;3.10;99.90;;;;;;6125235;23;20013;-88
2022/01/13 10:37:56;;;;;;;42.38;27.45;;;2.50;99.90;;;;;;6100047;23;20006;-88
2022/01/13 10:40:31;;;;;;;40.25;27.02;;;2.50;99.90;;;;;;6125329;23;20013;-89
2022/01/13 10:45:39;;;;;;;39.30;26.48;;;3.40;99.90;;;;;;6125166;23;20010;-89
2022/01/13 10:48:15;;;;;;;42.47;27.75;;;3.10;99.90;;;;;;6098584;23;20074;-89
2022/01/13 10:50:44;;;;;;;43.88;28.50;;;3.70;99.90;;;;;;6098824;23;20344;-89
2022/01/13 10:53:16;;;;;;;38.63;26.40;;;3.70;99.90;;;;;;6125383;23;20022;-89
2022/01/13 10:55:47;;;;;;;43.85;27.38;;;3.50;99.90;;;;;;6099986;23;20006;-89
2022/01/13 10:58:14;;;;;;;38.53;26.58;;;4.30;99.90;;;;;;6125018;23;20009;-89
2022/01/13 11:00:40;;;;;;;39.85;25.88;;;4.60;99.90;;;;;;6099433;23;20012;-89
2022/01/13 11:03:19;;;;;;;38.58;27.00;;;4.20;99.90;;;;;;6099177;23;20045;-89
2022/01/13 11:05:56;;;;;;;41.95;28.13;;;3.60;99.90;;;;;;6098743;23;20526;-89
2022/01/13 11:08:32;;;;;;;39.90;28.08;;;3.50;99.90;;;;;;6099627;23;20062;-88
2022/01/13 11:11:00;;;;;;;41.72;27.70;;;3.40;99.90;;;;;;6125067;23;20429;-88
2022/01/13 11:13:28;;;;;;;44.70;29.08;;;3.70;99.90;;;;;;6124737;23;20397;-88
2022/01/13 11:15:55;;;;;;;42.25;28.73;;;3.30;99.90;;;;;;6124865;23;20455;-89
2022/01/13 11:18:24;;;;;;;41.85;28.38;;;3.90;99.90;;;;;;6125686;23;20092;-88
2022/01/13 11:20:50;;;;;;;40.45;27.85;;;3.00;99.90;;;;;;6124827;23;20027;-89
2022/01/13 11:23:18;;;;;;;42.30;28.33;;;3.50;99.90;;;;;;6125105;23;20010;-89
2022/01/13 11:25:45;;;;;;;54.28;34.13;;;2.90;99.90;;;;;;6099751;23;20005;-88
2022/01/13 11:28:11;;;;;;;42.85;28.90;;;3.00;99.90;;;;;;6098412;23;20028;-89
2022/01/13 11:30:38;;;;;;;44.47;29.38;;;3.00;99.90;;;;;;6125271;23;20001;-88
2022/01/13 11:33:03;;;;;;;41.20;27.40;;;3.10;99.90;;;;;;6125100;23;20333;-89
2022/01/13 11:35:34;;;;;;;40.30;27.77;;;3.00;99.90;;;;;;6124107;23;20013;-89
2022/01/13 11:38:03;;;;;;;41.83;28.33;;;2.80;99.90;;;;;;6125562;23;20010;-89
2022/01/13 11:40:28;;;;;;;39.60;27.80;;;3.20;99.90;;;;;;6125501;23;20006;-89
2022/01/13 11:42:55;;;;;;;44.70;28.52;;;3.20;99.90;;;;;;6125373;23;20028;-89
2022/01/13 11:45:22;;;;;;;43.05;28.45;;;3.10;99.90;;;;;;6098707;23;20013;-89
2022/01/13 11:47:51;;;;;;;43.25;28.40;;;3.90;99.90;;;;;;6124752;23;20097;-89
2022/01/13 11:50:31;;;;;;;41.38;26.92;;;4.20;99.90;;;;;;6125208;23;20089;-89
2022/01/13 11:52:58;;;;;;;45.15;29.52;;;4.30;99.90;;;;;;6098749;23;20009;-89
2022/01/13 11:55:32;;;;;;;37.40;26.25;;;4.50;99.90;;;;;;6098873;23;20440;-89
2022/01/13 11:58:13;;;;;;;41.60;28.38;;;3.70;99.90;;;;;;6125050;23;20062;-89
2022/01/13 12:00:41;;;;;;;40.47;26.65;;;3.80;99.90;;;;;;6098656;23;20010;-89
2022/01/13 12:03:26;;;;;;;39.88;26.70;;;3.70;99.90;;;;;;6124704;23;20009;-90
2022/01/13 12:05:53;;;;;;;69.97;43.80;;;3.40;99.90;;;;;;6124798;23;20009;-89
2022/01/13 12:08:38;;;;;;;46.75;31.30;;;4.40;99.90;;;;;;6124857;23;20006;-89
2022/01/13 12:11:04;;;;;;;41.00;28.88;;;3.70;99.90;;;;;;6125119;23;20325;-89
2022/01/13 12:13:46;;;;;;;37.92;26.27;;;3.80;99.90;;;;;;6098455;23;20018;-89
2022/01/13 12:16:12;;;;;;;39.05;27.48;;;3.90;99.90;;;;;;6098472;23;20054;-89
2022/01/13 12:19:01;;;;;;;36.05;25.20;;;4.00;99.90;;;;;;6124261;23;20006;-90
2022/01/13 12:21:32;;;;;;;35.90;25.17;;;3.80;99.90;;;;;;6124814;23;20077;-89
2022/01/13 12:23:59;;;;;;;38.22;26.77;;;3.90;99.90;;;;;;6125043;23;20061;-90
2022/01/13 12:26:34;;;;;;;39.15;26.52;;;4.50;99.90;;;;;;6124731;23;20425;-89
2022/01/13 12:29:13;;;;;;;36.00;25.17;;;4.60;99.90;;;;;;6098660;23;20085;-89
2022/01/13 12:31:57;;;;;;;39.35;28.45;;;4.50;99.90;;;;;;6125033;23;20001;-89
2022/01/13 12:34:29;;;;;;;43.35;29.73;;;3.90;99.90;;;;;;6097728;23;20063;-89
2022/01/13 12:37:19;;;;;;;39.60;28.13;;;4.00;99.90;;;;;;6124514;23;20133;-89
2022/01/13 12:40:00;;;;;;;41.45;27.52;;;4.10;99.90;;;;;;6124322;23;20076;-88
2022/01/13 12:42:29;;;;;;;38.88;26.20;;;4.40;99.90;;;;;;6124721;23;20111;-89
2022/01/13 12:47:41;;;;;;;40.95;27.95;;;4.60;99.70;;;;;;6124227;23;20033;-89
2022/01/13 12:50:16;;;;;;;40.38;27.33;;;4.60;99.90;;;;;;6124017;23;20009;-89
2022/01/13 12:52:42;;;;;;;38.65;27.05;;;4.50;99.90;;;;;;6099227;23;20065;-89
2022/01/13 12:55:08;;;;;;;40.85;27.98;;;4.50;99.60;;;;;;6097741;23;20438;-89
2022/01/13 12:57:34;;;;;;;39.75;27.20;;;4.40;99.90;;;;;;6124243;23;20076;-89
2022/01/13 12:59:59;;;;;;;42.40;28.30;;;4.60;99.90;;;;;;6124667;23;20386;-90
2022/01/13 13:02:25;;;;;;;39.38;27.10;;;4.40;99.80;;;;;;6124480;23;20425;-89